createdAt,value
2023-04-21T00:04:40.801Z,2.8
2023-04-21T00:14:43.094Z,2.3
2023-04-21T00:24:45.477Z,2.7
2023-04-21T00:34:47.888Z,2.8
2023-04-21T00:44:50.240Z,3.4
2023-04-21T00:54:52.557Z,3.5
2023-04-21T01:04:54.821Z,3.2
2023-04-21T01:14:57.143Z,3.2
2023-04-21T01:24:59.473Z,3.5
2023-04-21T01:35:03.351Z,3.6
2023-04-21T01:45:04.006Z,3.1
2023-04-21T01:55:06.294Z,3.9
2023-04-21T02:05:08.463Z,3.5
2023-04-21T02:15:10.662Z,3.6
2023-04-21T02:25:12.870Z,3.5
2023-04-21T02:35:15.012Z,3.9
2023-04-21T02:45:17.127Z,3.5
2023-04-21T02:55:19.257Z,4
2023-04-21T03:05:21.451Z,4.5
2023-04-21T03:15:23.583Z,4.3
2023-04-21T03:25:25.685Z,5.5
2023-04-21T03:35:27.816Z,5.3
2023-04-21T03:45:29.935Z,5.7
2023-04-21T03:55:32.007Z,6.6
2023-04-21T04:05:34.244Z,7.4
2023-04-21T04:15:36.194Z,9.1
2023-04-21T04:25:38.249Z,9.1
2023-04-21T04:35:40.353Z,10.5
2023-04-21T04:45:42.372Z,9.1
2023-04-21T04:55:44.425Z,11.1
2023-04-21T05:05:46.466Z,11.3
2023-04-21T05:15:48.453Z,11.9
2023-04-21T05:25:50.384Z,10.9
2023-04-21T05:35:52.405Z,10.1
2023-04-21T05:45:54.373Z,10.8
2023-04-21T05:55:56.301Z,11.5
2023-04-21T06:05:58.476Z,11.3
2023-04-21T06:16:00.231Z,9.9
2023-04-21T06:26:02.142Z,10.5
2023-04-21T06:36:04.054Z,9.7
2023-04-21T06:46:06.052Z,9.4
2023-04-21T06:56:07.942Z,9.1
2023-04-21T07:06:09.880Z,9.6
2023-04-21T07:16:11.673Z,8.9
2023-04-21T07:26:13.519Z,8.7
2023-04-21T07:36:15.317Z,9.7
2023-04-21T07:46:17.155Z,8.5
2023-04-21T07:56:18.935Z,7.8
2023-04-21T08:06:21.090Z,7.8
2023-04-21T08:16:22.556Z,7.6
2023-04-21T08:26:24.291Z,8.7
2023-04-21T08:36:29.254Z,8.8
2023-04-21T08:46:27.851Z,7.9
2023-04-21T08:56:29.594Z,6.7
2023-04-21T09:06:31.331Z,6.3
2023-04-21T09:16:33.221Z,6.8
2023-04-21T09:26:36.831Z,6.2
2023-04-21T09:36:36.586Z,6.2
2023-04-21T09:46:38.346Z,6.7
2023-04-21T09:56:39.948Z,6.1
2023-04-21T10:06:41.673Z,5.9
2023-04-21T10:16:43.464Z,5.2
2023-04-21T10:26:45.017Z,5.5
2023-04-21T10:36:46.956Z,5.3
2023-04-21T10:46:48.521Z,5.7
2023-04-21T10:56:50.116Z,4.7
2023-04-21T11:06:52.787Z,5.7
2023-04-21T11:16:53.462Z,4.6
2023-04-21T11:26:55.319Z,4.8
2023-04-21T11:36:56.928Z,4.4
2023-04-21T11:46:58.712Z,4.6
2023-04-21T11:57:02.504Z,5
2023-04-21T12:07:02.210Z,4.6
2023-04-21T12:17:03.935Z,4.2
2023-04-21T12:27:05.704Z,4.5
2023-04-21T12:37:07.486Z,4.6
2023-04-21T12:47:09.355Z,4.6
2023-04-21T12:57:11.263Z,4.2
2023-04-21T13:07:13.267Z,4
2023-04-21T13:17:15.545Z,4.3
2023-04-21T13:27:17.729Z,4.3
2023-04-21T13:37:20.085Z,4.1
2023-04-21T13:47:22.247Z,4.6
2023-04-21T13:57:24.543Z,3.9
2023-04-21T14:07:26.789Z,3.8
2023-04-21T14:17:28.908Z,4
2023-04-21T14:27:31.241Z,4.2
2023-04-21T14:37:33.593Z,3.8
2023-04-21T14:47:35.994Z,4
2023-04-21T14:57:38.311Z,4
2023-04-21T15:07:40.739Z,3.8
2023-04-21T15:17:43.072Z,3.7
2023-04-21T15:27:46.787Z,3.9
2023-04-21T15:37:47.923Z,3.7
2023-04-21T15:47:50.575Z,3.5
2023-04-21T15:57:53.140Z,3.8
2023-04-21T16:07:55.672Z,3.4
2023-04-21T16:17:58.194Z,3.2
2023-04-21T16:28:00.762Z,3.3
2023-04-21T16:38:03.546Z,3.4
2023-04-21T16:48:06.268Z,3.2
2023-04-21T16:58:08.953Z,3.2
2023-04-21T17:08:11.596Z,3.3
2023-04-21T17:28:17.061Z,2.7
2023-04-21T17:38:19.714Z,3.5
2023-04-21T17:48:22.562Z,2.9
2023-04-21T17:58:25.365Z,2.9
2023-04-21T18:08:28.164Z,3.1
2023-04-21T18:18:30.922Z,3.1
2023-04-21T18:28:33.781Z,3.5
2023-04-21T18:38:36.617Z,3.3
2023-04-21T18:48:39.509Z,2.8
2023-04-21T18:58:42.338Z,3.5
2023-04-21T19:08:45.245Z,3.1
2023-04-21T19:18:48.121Z,3
2023-04-21T19:28:50.939Z,3.2
2023-04-21T19:38:53.832Z,3.4
2023-04-21T19:48:56.802Z,3.2
2023-04-21T19:59:00.535Z,3.3
2023-04-21T20:09:02.537Z,3.6
2023-04-21T20:19:05.343Z,3.2
2023-04-21T20:29:08.162Z,3.9
2023-04-21T20:39:11.026Z,3.1
2023-04-21T20:49:13.870Z,3.9
2023-04-21T20:59:16.640Z,3.9
2023-04-21T21:09:19.499Z,3.8
2023-04-21T21:19:22.263Z,3.7
2023-04-21T21:29:25.033Z,3.3
2023-04-21T21:39:27.921Z,3.4
2023-04-21T21:49:30.601Z,4.6
2023-04-21T21:59:33.311Z,5.1
2023-04-21T22:09:36.306Z,4.9
2023-04-21T22:19:39.023Z,5.3
2023-04-21T22:29:41.511Z,4.9
2023-04-21T22:39:44.268Z,4.6
2023-04-21T22:49:46.662Z,4.6
2023-04-21T23:09:45.777Z,4.6
2023-04-21T23:19:54.198Z,4.6
2023-04-21T23:29:56.859Z,3.7
2023-04-21T23:39:59.215Z,3.7
2023-04-21T23:50:01.478Z,3.8
